createdAt,value
2023-03-27T00:00:13.538Z,64.81
2023-03-27T00:03:03.309Z,64.76
2023-03-27T00:05:31.745Z,64.21
2023-03-27T00:08:01.885Z,64.27
2023-03-27T00:10:30.261Z,64.27
2023-03-27T00:12:59.296Z,64.39
2023-03-27T00:15:27.681Z,65.06
2023-03-27T00:17:56.242Z,65.35
2023-03-27T00:20:26.482Z,65.39
2023-03-27T00:22:56.663Z,65.62
2023-03-27T00:25:29.543Z,65.48
2023-03-27T00:28:01.395Z,65.61
2023-03-27T00:30:31.446Z,65.56
2023-03-27T00:32:59.981Z,65.55
2023-03-27T00:35:30.096Z,64.84
2023-03-27T00:37:59.139Z,64.39
2023-03-27T00:40:28.348Z,64.26
2023-03-27T00:42:58.028Z,63.77
2023-03-27T00:45:32.613Z,63.99
2023-03-27T00:48:05.260Z,64.18
2023-03-27T00:50:37.327Z,64.48
2023-03-27T00:53:12.470Z,64.87
2023-03-27T00:55:44.022Z,64.90
2023-03-27T00:58:29.755Z,64.98
2023-03-27T01:00:58.725Z,65.03
2023-03-27T01:03:33.465Z,65.05
2023-03-27T01:06:02.940Z,65.07
2023-03-27T01:08:33.925Z,65.15
2023-03-27T01:11:14.461Z,64.99
2023-03-27T01:13:51.884Z,64.73
2023-03-27T01:16:29.427Z,64.87
2023-03-27T01:19:39.520Z,64.70
2023-03-27T01:22:22.992Z,64.67
2023-03-27T01:25:01.228Z,64.61
2023-03-27T01:27:42.118Z,64.32
2023-03-27T01:30:23.355Z,64.64
2023-03-27T01:33:15.000Z,64.54
2023-03-27T01:35:49.491Z,64.35
2023-03-27T01:39:06.022Z,64.62
2023-03-27T01:41:40.630Z,65.12
2023-03-27T01:44:27.241Z,64.79
2023-03-27T01:47:17.883Z,65.08
2023-03-27T01:50:15.474Z,64.99
2023-03-27T01:52:47.645Z,65.22
2023-03-27T01:55:19.524Z,65.74
2023-03-27T01:57:54.358Z,65.85
2023-03-27T02:00:24.481Z,65.87
2023-03-27T02:03:18.253Z,65.66
2023-03-27T02:06:00.829Z,65.60
2023-03-27T02:09:04.591Z,66.09
2023-03-27T02:11:38.416Z,66.57
2023-03-27T02:14:20.284Z,66.74
2023-03-27T02:16:54.701Z,66.89
2023-03-27T02:19:30.295Z,66.84
2023-03-27T02:21:59.335Z,67.01
2023-03-27T02:24:28.176Z,67.19
2023-03-27T02:27:27.776Z,67.16
2023-03-27T02:30:07.322Z,67.36
2023-03-27T02:33:23.601Z,67.22
2023-03-27T02:36:12.141Z,67.27
2023-03-27T02:38:42.355Z,67.60
2023-03-27T02:41:26.756Z,67.54
2023-03-27T02:44:13.411Z,67.49
2023-03-27T02:47:29.006Z,67.68
2023-03-27T02:50:05.750Z,67.57
2023-03-27T02:52:39.767Z,67.99
2023-03-27T02:55:34.687Z,68.29
2023-03-27T02:58:11.303Z,68.74
2023-03-27T03:01:01.100Z,68.98
2023-03-27T03:03:42.168Z,69.39
2023-03-27T03:06:22.265Z,69.53
2023-03-27T03:08:50.954Z,69.61
2023-03-27T03:11:21.861Z,69.71
2023-03-27T03:13:50.195Z,69.74
2023-03-27T03:16:19.290Z,70.13
2023-03-27T03:18:47.834Z,70.28
2023-03-27T03:21:16.700Z,70.27
2023-03-27T03:23:58.296Z,70.51
2023-03-27T03:26:28.148Z,70.27
2023-03-27T03:29:00.257Z,70.03
2023-03-27T03:31:43.654Z,69.89
2023-03-27T03:34:14.624Z,69.46
2023-03-27T03:36:45.232Z,69.35
2023-03-27T03:39:13.742Z,69.55
2023-03-27T03:41:43.368Z,69.66
2023-03-27T03:44:12.092Z,69.85
2023-03-27T03:46:42.260Z,70.10
2023-03-27T03:49:11.012Z,70.06
2023-03-27T03:51:39.385Z,70.23
2023-03-27T03:54:09.814Z,70.30
2023-03-27T03:56:41.904Z,70.64
2023-03-27T03:59:12.135Z,71.16
2023-03-27T04:01:58.985Z,71.90
2023-03-27T04:04:32.238Z,72.08
2023-03-27T04:07:07.275Z,72.33
2023-03-27T04:09:38.032Z,72.33
2023-03-27T04:12:18.697Z,72.66
2023-03-27T04:15:01.893Z,72.74
2023-03-27T04:18:03.069Z,72.43
2023-03-27T04:20:34.952Z,72.35
2023-03-27T04:23:05.137Z,72.34
2023-03-27T04:25:38.142Z,72.48
2023-03-27T04:28:07.300Z,72.35
2023-03-27T04:30:39.298Z,72.63
2023-03-27T04:33:46.903Z,73.00
2023-03-27T04:36:30.182Z,72.93
2023-03-27T04:39:07.010Z,72.91
2023-03-27T04:41:35.358Z,72.55
2023-03-27T04:44:03.844Z,72.47
2023-03-27T04:46:32.305Z,72.18
2023-03-27T04:49:05.058Z,72.21
2023-03-27T04:51:51.489Z,72.58
2023-03-27T04:54:19.935Z,72.31
2023-03-27T04:56:49.190Z,72.19
2023-03-27T04:59:18.163Z,72.07
2023-03-27T05:01:51.741Z,72.20
2023-03-27T05:04:40.981Z,72.23
2023-03-27T05:07:13.714Z,71.94
2023-03-27T05:09:42.714Z,71.92
2023-03-27T05:12:12.160Z,71.87
2023-03-27T05:14:50.080Z,71.97
2023-03-27T05:17:45.619Z,72.00
2023-03-27T05:20:17.404Z,71.86
2023-03-27T05:22:46.015Z,71.62
2023-03-27T05:25:25.908Z,71.62
2023-03-27T05:27:55.004Z,71.52
2023-03-27T05:30:25.313Z,71.18
2023-03-27T05:33:00.970Z,71.13
2023-03-27T05:35:30.884Z,70.92
2023-03-27T05:38:01.608Z,70.84
2023-03-27T05:40:48.316Z,70.76
2023-03-27T05:43:19.992Z,70.81
2023-03-27T05:45:59.252Z,70.90
2023-03-27T05:48:28.156Z,70.64
2023-03-27T05:51:03.115Z,70.68
2023-03-27T05:53:32.609Z,70.34
2023-03-27T05:56:13.038Z,70.04
2023-03-27T05:58:50.992Z,69.97
2023-03-27T06:01:21.097Z,69.82
2023-03-27T06:03:55.426Z,69.97
2023-03-27T06:06:29.163Z,69.66
2023-03-27T06:09:00.149Z,69.09
2023-03-27T06:11:29.220Z,69.00
2023-03-27T06:13:58.945Z,68.94
2023-03-27T06:16:43.173Z,68.92
2023-03-27T06:19:31.896Z,68.63
2023-03-27T06:22:00.307Z,67.92
2023-03-27T06:24:29.493Z,68.23
2023-03-27T06:27:01.461Z,67.56
2023-03-27T06:29:31.638Z,67.50
2023-03-27T06:32:02.036Z,67.21
2023-03-27T06:34:35.428Z,66.78
2023-03-27T06:37:13.552Z,66.74
2023-03-27T06:39:43.375Z,67.35
2023-03-27T06:42:14.173Z,67.00
2023-03-27T06:45:08.265Z,67.13
2023-03-27T06:48:21.225Z,65.95
2023-03-27T06:50:53.500Z,65.86
2023-03-27T06:55:54.846Z,65.75
2023-03-27T06:58:24.452Z,65.93
2023-03-27T07:00:55.900Z,65.90
2023-03-27T07:03:26.540Z,64.69
2023-03-27T07:06:27.313Z,63.99
2023-03-27T07:09:01.688Z,63.64
2023-03-27T07:11:32.211Z,62.56
2023-03-27T07:14:04.605Z,61.76
2023-03-27T07:16:33.430Z,60.79
2023-03-27T07:19:02.637Z,59.92
2023-03-27T07:21:36.287Z,60.07
2023-03-27T07:24:08.066Z,60.40
2023-03-27T07:26:39.554Z,60.11
2023-03-27T07:29:24.070Z,60.05
2023-03-27T07:32:02.839Z,59.04
2023-03-27T07:34:53.179Z,58.92
2023-03-27T07:37:23.172Z,58.05
2023-03-27T07:40:16.544Z,55.72
2023-03-27T07:42:54.018Z,54.13
2023-03-27T07:45:24.227Z,52.69
2023-03-27T07:48:04.444Z,50.28
2023-03-27T07:50:33.673Z,49.90
2023-03-27T07:53:03.122Z,50.85
2023-03-27T07:55:31.939Z,50.56
2023-03-27T07:58:07.131Z,50.07
2023-03-27T08:00:36.705Z,50.43
2023-03-27T08:03:12.081Z,50.12
2023-03-27T08:05:45.376Z,50.88
2023-03-27T08:08:16.500Z,49.68
2023-03-27T08:10:59.468Z,50.39
2023-03-27T08:13:32.255Z,50.18
2023-03-27T08:16:04.667Z,49.74
2023-03-27T08:18:33.801Z,48.95
2023-03-27T08:21:03.493Z,49.75
2023-03-27T08:23:34.134Z,50.05
2023-03-27T08:26:06.178Z,48.71
2023-03-27T08:28:43.042Z,49.01
2023-03-27T08:31:14.354Z,49.09
2023-03-27T08:33:58.377Z,48.39
2023-03-27T08:36:29.604Z,48.22
2023-03-27T08:38:58.777Z,46.47
2023-03-27T08:41:42.646Z,45.76
2023-03-27T08:44:17.964Z,45.04
2023-03-27T08:47:14.807Z,44.56
2023-03-27T08:49:53.140Z,43.88
2023-03-27T08:52:29.166Z,42.73
2023-03-27T08:55:11.119Z,41.85
2023-03-27T08:57:44.991Z,41.19
2023-03-27T09:00:23.844Z,40.83
2023-03-27T09:03:08.958Z,40.50
2023-03-27T09:06:01.572Z,39.37
2023-03-27T09:08:56.828Z,37.87
2023-03-27T09:11:45.851Z,38.42
2023-03-27T09:14:44.495Z,37.06
2023-03-27T09:17:36.572Z,36.38
2023-03-27T09:20:23.978Z,37.00
2023-03-27T09:22:58.198Z,36.72
2023-03-27T09:26:00.353Z,36.63
2023-03-27T09:29:00.789Z,36.30
2023-03-27T09:31:34.701Z,36.37
2023-03-27T09:34:11.968Z,36.88
2023-03-27T09:36:41.978Z,37.20
2023-03-27T09:39:17.637Z,37.16
2023-03-27T09:41:52.690Z,38.06
2023-03-27T09:44:26.216Z,38.80
2023-03-27T09:47:06.288Z,38.22
2023-03-27T09:49:36.191Z,38.66
2023-03-27T09:52:08.501Z,39.26
2023-03-27T09:55:03.919Z,39.76
2023-03-27T09:57:41.512Z,39.46
2023-03-27T10:00:31.982Z,40.52
2023-03-27T10:03:08.232Z,40.49
2023-03-27T10:05:41.842Z,41.00
2023-03-27T10:08:40.069Z,40.87
2023-03-27T10:11:17.035Z,41.01
2023-03-27T10:13:52.383Z,41.09
2023-03-27T10:16:22.905Z,41.39
2023-03-27T10:19:00.415Z,41.48
2023-03-27T10:21:34.953Z,41.71
2023-03-27T10:24:33.877Z,42.08
2023-03-27T10:27:19.222Z,42.33
2023-03-27T10:30:28.037Z,42.35
2023-03-27T10:33:02.615Z,43.02
2023-03-27T10:35:52.497Z,43.08
2023-03-27T10:38:33.772Z,43.54
2023-03-27T10:41:28.110Z,43.66
2023-03-27T10:43:59.305Z,44.07
2023-03-27T10:46:30.577Z,44.34
2023-03-27T10:49:19.010Z,44.66
2023-03-27T10:52:22.044Z,44.74
2023-03-27T10:55:23.499Z,45.35
2023-03-27T10:57:58.993Z,45.36
2023-03-27T11:01:05.536Z,45.61
2023-03-27T11:03:43.694Z,45.80
2023-03-27T11:06:16.507Z,46.20
2023-03-27T11:09:06.085Z,46.32
2023-03-27T11:11:43.353Z,46.77
2023-03-27T11:14:21.498Z,46.73
2023-03-27T11:17:13.092Z,47.02
2023-03-27T11:20:07.689Z,47.09
2023-03-27T11:23:04.732Z,47.77
2023-03-27T11:25:52.973Z,48.10
2023-03-27T11:28:41.747Z,48.04
2023-03-27T11:31:12.288Z,48.51
2023-03-27T11:33:49.854Z,48.52
2023-03-27T11:36:33.244Z,48.98
2023-03-27T11:39:36.570Z,48.80
2023-03-27T11:42:27.083Z,48.47
2023-03-27T11:45:18.887Z,48.85
2023-03-27T11:48:16.660Z,49.18
2023-03-27T11:51:12.109Z,49.11
2023-03-27T11:54:08.992Z,48.22
2023-03-27T11:56:56.578Z,48.50
2023-03-27T11:59:58.856Z,48.64
2023-03-27T12:02:42.711Z,49.84
2023-03-27T12:05:46.887Z,49.84
2023-03-27T12:08:23.154Z,52.59
2023-03-27T12:10:53.532Z,51.05
2023-03-27T12:13:41.928Z,51.21
2023-03-27T12:16:42.761Z,50.28
2023-03-27T12:19:46.716Z,50.51
2023-03-27T12:22:43.846Z,50.56
2023-03-27T12:25:43.033Z,50.44
2023-03-27T12:28:40.751Z,51.23
2023-03-27T12:31:41.864Z,50.50
2023-03-27T12:34:38.943Z,49.30
2023-03-27T12:37:12.590Z,48.93
2023-03-27T12:39:57.509Z,48.49
2023-03-27T12:42:44.228Z,49.52
2023-03-27T12:45:28.212Z,49.24
2023-03-27T12:48:20.448Z,48.47
2023-03-27T12:50:53.051Z,49.10
2023-03-27T12:53:27.555Z,48.66
2023-03-27T12:56:18.150Z,48.43
2023-03-27T12:58:51.946Z,47.78
2023-03-27T13:01:51.859Z,48.14
2023-03-27T13:04:44.072Z,48.35
2023-03-27T13:07:37.188Z,48.94
2023-03-27T13:10:33.357Z,48.28
2023-03-27T13:13:17.360Z,48.39
2023-03-27T13:16:05.061Z,48.37
2023-03-27T13:19:06.683Z,47.18
2023-03-27T13:21:45.032Z,46.39
2023-03-27T13:24:32.520Z,46.60
2023-03-27T13:27:49.423Z,46.72
2023-03-27T13:30:49.141Z,47.19
2023-03-27T13:34:11.213Z,46.87
2023-03-27T13:36:49.138Z,46.66
2023-03-27T13:39:25.127Z,46.61
2023-03-27T13:42:07.353Z,46.71
2023-03-27T13:45:21.204Z,46.27
2023-03-27T13:48:26.646Z,46.46
2023-03-27T13:51:27.269Z,46.57
2023-03-27T13:54:33.102Z,46.94
2023-03-27T13:57:11.989Z,47.24
2023-03-27T14:00:08.578Z,46.80
2023-03-27T14:02:51.997Z,46.74
2023-03-27T14:05:43.347Z,46.44
2023-03-27T14:08:43.098Z,46.33
2023-03-27T14:11:32.893Z,46.14
2023-03-27T14:14:33.711Z,46.06
2023-03-27T14:17:05.074Z,46.42
2023-03-27T14:20:07.432Z,46.44
2023-03-27T14:22:50.640Z,46.78
2023-03-27T14:25:24.518Z,46.96
2023-03-27T14:27:59.807Z,46.92
2023-03-27T14:30:49.652Z,46.35
2023-03-27T14:33:39.515Z,46.39
2023-03-27T14:36:16.836Z,46.34
2023-03-27T14:38:47.521Z,46.29
2023-03-27T14:41:28.249Z,46.52
2023-03-27T14:44:04.385Z,46.67
2023-03-27T14:46:36.531Z,46.72
2023-03-27T14:49:12.149Z,47.18
2023-03-27T14:51:47.738Z,47.28
2023-03-27T14:54:27.748Z,47.28
2023-03-27T14:57:06.607Z,47.49
2023-03-27T14:59:46.949Z,47.51
2023-03-27T15:02:21.950Z,47.92
2023-03-27T15:04:54.509Z,48.01
2023-03-27T15:07:28.895Z,48.31
2023-03-27T15:10:36.273Z,48.40
2023-03-27T15:13:39.969Z,48.52
2023-03-27T15:16:19.487Z,48.65
2023-03-27T15:18:58.962Z,48.81
2023-03-27T15:21:45.268Z,49.11
2023-03-27T15:24:21.863Z,49.45
2023-03-27T15:26:51.086Z,49.47
2023-03-27T15:29:27.608Z,49.88
2023-03-27T15:31:57.013Z,49.97
2023-03-27T15:34:57.029Z,50.23
2023-03-27T15:37:28.824Z,50.30
2023-03-27T15:40:15.844Z,50.64
2023-03-27T15:42:50.647Z,50.86
2023-03-27T15:45:23.913Z,51.15
2023-03-27T15:48:07.125Z,51.50
2023-03-27T15:50:35.632Z,51.91
2023-03-27T15:53:04.088Z,52.04
2023-03-27T15:55:42.536Z,52.37
2023-03-27T15:58:16.548Z,52.85
2023-03-27T16:00:47.850Z,53.17
2023-03-27T16:03:21.503Z,53.54
2023-03-27T16:05:56.759Z,53.53
2023-03-27T16:08:38.416Z,54.13
2023-03-27T16:11:07.369Z,54.38
2023-03-27T16:13:43.915Z,54.58
2023-03-27T16:16:23.191Z,54.74
2023-03-27T16:18:52.211Z,55.11
2023-03-27T16:21:23.442Z,55.74
2023-03-27T16:23:51.957Z,55.67
2023-03-27T16:26:23.684Z,56.08
2023-03-27T16:28:55.390Z,56.38
2023-03-27T16:31:24.128Z,56.25
2023-03-27T16:33:56.005Z,56.68
2023-03-27T16:36:33.885Z,56.39
2023-03-27T16:39:04.802Z,56.13
2023-03-27T16:41:33.402Z,55.20
2023-03-27T16:44:02.114Z,54.63
2023-03-27T16:46:31.838Z,54.12
2023-03-27T16:49:00.296Z,53.85
2023-03-27T16:51:29.892Z,53.81
2023-03-27T16:53:58.995Z,52.39
2023-03-27T16:56:28.044Z,50.85
2023-03-27T16:58:56.720Z,49.48
2023-03-27T17:01:25.440Z,48.05
2023-03-27T17:03:54.250Z,48.12
2023-03-27T17:06:23.224Z,47.39
2023-03-27T17:08:55.948Z,46.94
2023-03-27T17:11:24.473Z,46.45
2023-03-27T17:13:53.214Z,46.13
2023-03-27T17:16:21.922Z,46.03
2023-03-27T17:18:50.435Z,45.49
2023-03-27T17:21:19.347Z,44.77
2023-03-27T17:23:48.974Z,44.31
2023-03-27T17:26:31.516Z,43.65
2023-03-27T17:29:00.241Z,43.37
2023-03-27T17:31:30.794Z,43.12
2023-03-27T17:34:00.003Z,43.66
2023-03-27T17:36:41.156Z,43.73
2023-03-27T17:39:13.478Z,43.45
2023-03-27T17:41:42.215Z,43.40
2023-03-27T17:44:12.082Z,43.11
2023-03-27T17:46:41.309Z,42.92
2023-03-27T17:49:10.235Z,43.20
2023-03-27T17:51:39.177Z,43.31
2023-03-27T17:54:07.962Z,43.44
2023-03-27T17:56:37.105Z,43.49
2023-03-27T17:59:06.255Z,44.07
2023-03-27T18:01:35.346Z,44.45
2023-03-27T18:04:04.382Z,44.99
2023-03-27T18:06:32.824Z,45.50
2023-03-27T18:09:01.530Z,45.74
2023-03-27T18:11:30.144Z,46.05
2023-03-27T18:13:58.607Z,46.39
2023-03-27T18:16:27.252Z,46.62
2023-03-27T18:18:57.736Z,47.07
2023-03-27T18:21:26.153Z,47.57
2023-03-27T18:23:59.688Z,47.77
2023-03-27T18:26:28.885Z,48.33
2023-03-27T18:28:57.961Z,48.43
2023-03-27T18:31:26.660Z,48.44
2023-03-27T18:33:55.768Z,48.54
2023-03-27T18:36:24.970Z,48.85
2023-03-27T18:38:54.564Z,49.24
2023-03-27T18:41:23.433Z,49.94
2023-03-27T18:43:55.407Z,50.49
2023-03-27T18:46:24.805Z,51.56
2023-03-27T18:48:54.892Z,51.96
2023-03-27T18:51:24.213Z,52.28
2023-03-27T18:53:52.944Z,52.73
2023-03-27T18:56:21.785Z,53.12
2023-03-27T18:58:50.465Z,53.78
2023-03-27T19:01:19.573Z,54.63
2023-03-27T19:03:51.807Z,55.48
2023-03-27T19:06:21.449Z,55.87
2023-03-27T19:08:51.385Z,56.24
2023-03-27T19:11:19.758Z,56.50
2023-03-27T19:14:19.816Z,57.12
2023-03-27T19:17:06.370Z,57.53
2023-03-27T19:19:43.977Z,57.82
2023-03-27T19:22:14.362Z,58.07
2023-03-27T19:24:47.071Z,58.11
2023-03-27T19:27:23.201Z,58.45
2023-03-27T19:29:54.033Z,58.69
2023-03-27T19:32:24.425Z,58.76
2023-03-27T19:34:53.699Z,59.38
2023-03-27T19:37:22.305Z,60.49
2023-03-27T19:39:51.537Z,61.29
2023-03-27T19:42:20.098Z,62.32
2023-03-27T19:44:49.047Z,63.01
2023-03-27T19:47:17.456Z,63.52
2023-03-27T19:49:46.374Z,64.06
2023-03-27T19:52:36.274Z,64.72
2023-03-27T19:55:05.136Z,64.85
2023-03-27T19:57:33.520Z,65.29
2023-03-27T20:00:01.943Z,65.32
2023-03-27T20:02:30.797Z,65.63
2023-03-27T20:04:59.300Z,65.33
2023-03-27T20:07:27.777Z,65.95
2023-03-27T20:09:56.387Z,65.91
2023-03-27T20:12:25.200Z,65.94
2023-03-27T20:15:02.988Z,66.09
2023-03-27T20:17:43.111Z,67.23
2023-03-27T20:20:12.281Z,68.50
2023-03-27T20:22:54.361Z,69.57
2023-03-27T20:25:28.335Z,70.36
2023-03-27T20:27:56.740Z,71.54
2023-03-27T20:30:25.684Z,72.03
2023-03-27T20:32:54.546Z,71.97
2023-03-27T20:35:25.059Z,72.54
2023-03-27T20:37:58.076Z,72.23
2023-03-27T20:40:31.432Z,72.19
2023-03-27T20:43:06.262Z,72.16
2023-03-27T20:45:34.738Z,72.09
2023-03-27T20:48:03.458Z,71.95
2023-03-27T20:50:35.503Z,72.00
2023-03-27T20:53:04.993Z,72.72
2023-03-27T20:55:39.258Z,72.16
2023-03-27T20:58:12.804Z,72.04
2023-03-27T21:00:43.864Z,71.60
2023-03-27T21:03:12.465Z,72.08
2023-03-27T21:05:41.472Z,72.77
2023-03-27T21:08:10.324Z,73.06
2023-03-27T21:10:39.253Z,73.45
2023-03-27T21:13:08.320Z,74.18
2023-03-27T21:15:36.748Z,75.01
2023-03-27T21:18:07.401Z,75.89
2023-03-27T21:20:35.812Z,75.12
2023-03-27T21:23:04.349Z,75.58
2023-03-27T21:25:34.948Z,76.06
2023-03-27T21:28:06.563Z,75.61
2023-03-27T21:30:46.459Z,76.50
2023-03-27T21:33:17.161Z,76.10
2023-03-27T21:35:47.243Z,76.18
2023-03-27T21:38:16.482Z,76.87
2023-03-27T21:40:47.850Z,76.90
2023-03-27T21:43:16.434Z,76.34
2023-03-27T21:45:47.032Z,76.55
2023-03-27T21:48:15.762Z,76.74
2023-03-27T21:50:44.499Z,76.65
2023-03-27T21:53:13.790Z,76.83
2023-03-27T21:55:42.758Z,76.77
2023-03-27T21:58:11.339Z,76.60
2023-03-27T22:00:39.817Z,76.94
2023-03-27T22:03:08.253Z,76.93
2023-03-27T22:05:40.523Z,76.83
2023-03-27T22:08:09.048Z,77.03
2023-03-27T22:10:37.687Z,77.29
2023-03-27T22:13:06.870Z,77.63
2023-03-27T22:15:35.697Z,77.51
2023-03-27T22:18:04.281Z,77.79
2023-03-27T22:20:32.923Z,77.74
2023-03-27T22:23:01.510Z,78.04
2023-03-27T22:25:30.089Z,77.55
2023-03-27T22:28:00.036Z,77.98
2023-03-27T22:30:30.241Z,77.86
2023-03-27T22:32:58.779Z,77.97
2023-03-27T22:35:27.454Z,77.63
2023-03-27T22:37:56.184Z,77.50
2023-03-27T22:40:24.711Z,77.93
2023-03-27T22:42:53.333Z,77.97
2023-03-27T22:45:21.743Z,78.18
2023-03-27T22:47:50.218Z,78.27
2023-03-27T22:50:18.547Z,78.32
2023-03-27T22:52:47.634Z,78.47
2023-03-27T22:55:16.152Z,78.76
2023-03-27T22:57:44.640Z,79.20
2023-03-27T23:00:13.947Z,79.79
2023-03-27T23:02:42.552Z,79.23
2023-03-27T23:05:11.266Z,79.01
2023-03-27T23:07:39.660Z,78.26
2023-03-27T23:10:08.826Z,78.43
2023-03-27T23:12:37.270Z,79.02
2023-03-27T23:15:06.176Z,79.35
2023-03-27T23:17:34.549Z,79.90
2023-03-27T23:20:02.944Z,80.80
2023-03-27T23:22:31.370Z,81.66
2023-03-27T23:24:59.706Z,81.83
2023-03-27T23:27:28.153Z,81.59
2023-03-27T23:29:56.631Z,82.07
2023-03-27T23:32:25.214Z,82.28
2023-03-27T23:34:53.694Z,81.48
2023-03-27T23:37:22.692Z,81.86
2023-03-27T23:39:51.282Z,82.41
2023-03-27T23:42:19.750Z,82.68
2023-03-27T23:44:48.119Z,82.65
2023-03-27T23:47:16.628Z,82.07
2023-03-27T23:49:45.293Z,82.05
2023-03-27T23:52:14.117Z,82.56
2023-03-27T23:54:42.664Z,82.86
2023-03-27T23:57:11.212Z,83.53
2023-03-27T23:59:39.730Z,84.47
